Terminal Aerodrome Forecast
Issued by NWS

Home | Current Version | Previous Version | Text Only | Print | Product List | Glossary On
Versions: 1 2 3 4 5 6 7 8 9 10 11 12 13 14 15
000
FTUS41 KGYX 171731
TAFAUG
TAF
KAUG 171731Z 1718/1818 05008KT P6SM FEW250
     FM180300 04005KT 2SM -SN OVC040
     FM180500 04007KT 3/4SM -SN OVC005
     FM181700 04008KT P6SM OVC008=

USA.gov is the U.S. government's official web portal to all federal, state and local government web resources and services.